Time;durP1;ratioP1;P1;durP2;ratioP2;P2;SDS_P1;SDS_P2;PMS_P1;PMS_P2;Temp;Humidity;BMP_temperature;BMP_pressure;BME280_temperature;BME280_humidity;BME280_pressure;Samples;Min_cycle;Max_cycle;Signal;HPM_P1;HPM_P2
2021/12/23 00:00:34;;;;;;;47.23;21.93;;;-5.20;99.90;;;;;;5000098;28;20182;-88
2021/12/23 00:03:12;;;;;;;44.90;21.77;;;-5.40;99.90;;;;;;4999290;28;20190;-88
2021/12/23 00:05:38;;;;;;;42.00;20.50;;;-5.50;99.90;;;;;;4999053;28;20289;-88
2021/12/23 00:08:04;;;;;;;36.70;19.37;;;-5.60;99.90;;;;;;5007683;28;20630;-88
2021/12/23 00:10:30;;;;;;;39.93;19.40;;;-5.60;99.90;;;;;;5015815;28;20270;-88
2021/12/23 00:12:56;;;;;;;42.30;19.07;;;-5.70;99.90;;;;;;5035478;28;20217;-88
2021/12/23 00:15:38;;;;;;;37.23;19.37;;;-5.70;99.90;;;;;;5032415;28;20201;-88
2021/12/23 00:23:25;;;;;;;49.47;22.93;;;-5.80;99.90;;;;;;5028488;28;20244;-88
2021/12/23 00:25:54;;;;;;;41.17;20.73;;;-5.90;99.90;;;;;;4999139;28;20233;-88
2021/12/23 00:28:21;;;;;;;49.17;22.47;;;-5.90;99.90;;;;;;4999248;28;20190;-88
2021/12/23 00:30:47;;;;;;;52.87;23.97;;;-5.90;99.90;;;;;;4999439;28;20273;-88
2021/12/23 00:33:13;;;;;;;47.83;22.93;;;-5.80;99.90;;;;;;4998971;28;20210;-88
2021/12/23 00:38:28;;;;;;;49.73;24.20;;;-5.70;99.90;;;;;;5825468;22;20298;-88
2021/12/23 00:40:55;;;;;;;50.40;23.97;;;-5.70;99.90;;;;;;5016746;28;20182;-88
2021/12/23 00:43:21;;;;;;;50.20;24.30;;;-5.70;99.90;;;;;;5017039;28;20197;-89
2021/12/23 00:45:48;;;;;;;47.60;23.70;;;-5.70;99.90;;;;;;5033786;28;20181;-88
2021/12/23 00:48:15;;;;;;;50.67;22.27;;;-5.60;99.90;;;;;;5023762;28;20258;-88
2021/12/23 00:50:41;;;;;;;48.30;23.27;;;-5.50;99.90;;;;;;5036946;28;20181;-88
2021/12/23 00:53:09;;;;;;;44.87;22.57;;;-5.40;99.90;;;;;;5033592;28;20241;-88
2021/12/23 00:55:35;;;;;;;46.57;22.97;;;-5.40;99.90;;;;;;5017285;28;20264;-88
2021/12/23 00:58:02;;;;;;;43.63;21.97;;;-5.40;99.90;;;;;;5017374;28;20194;-88
2021/12/23 01:00:28;;;;;;;45.07;21.57;;;-5.40;99.90;;;;;;5018132;28;20173;-85
2021/12/23 01:02:55;;;;;;;39.20;19.20;;;-5.40;99.90;;;;;;5035422;28;20269;-89
2021/12/23 01:05:22;;;;;;;37.77;19.57;;;-5.40;99.90;;;;;;5018791;28;20182;-89
2021/12/23 01:07:48;;;;;;;39.40;19.70;;;-5.40;99.90;;;;;;5028746;28;20288;-89
2021/12/23 01:10:16;;;;;;;36.53;18.27;;;-5.40;99.90;;;;;;5046064;28;20269;-89
2021/12/23 01:12:56;;;;;;;38.53;18.77;;;-5.40;99.90;;;;;;5058680;28;20215;-89
2021/12/23 01:18:07;;;;;;;35.50;18.27;;;-5.40;99.90;;;;;;5068157;28;20216;-89
2021/12/23 01:20:38;;;;;;;33.13;16.53;;;-5.30;99.90;;;;;;5041779;28;20261;-89
2021/12/23 01:23:08;;;;;;;31.90;16.80;;;-5.40;99.90;;;;;;5040887;28;20656;-89
2021/12/23 01:25:36;;;;;;;32.87;17.23;;;-5.50;99.90;;;;;;5038218;28;20311;-89
2021/12/23 01:28:03;;;;;;;40.30;19.13;;;-5.50;99.90;;;;;;5038618;28;20204;-89
2021/12/23 01:30:30;;;;;;;34.23;17.73;;;-5.60;99.90;;;;;;5038332;28;20224;-89
2021/12/23 01:33:07;;;;;;;34.23;17.47;;;-5.60;99.90;;;;;;5038643;28;20292;-89
2021/12/23 01:35:40;;;;;;;35.50;17.90;;;-5.60;99.90;;;;;;5038557;28;20165;-89
2021/12/23 01:38:06;;;;;;;35.47;17.77;;;-5.60;99.90;;;;;;5036741;28;20209;-88
2021/12/23 01:40:32;;;;;;;36.97;18.10;;;-5.70;99.90;;;;;;5038157;28;20176;-89
2021/12/23 01:42:58;;;;;;;36.33;18.03;;;-5.70;99.90;;;;;;5055179;28;20178;-89
2021/12/23 01:45:30;;;;;;;39.10;17.60;;;-5.70;99.90;;;;;;5039424;28;20242;-89
2021/12/23 01:47:58;;;;;;;34.47;17.30;;;-5.70;99.90;;;;;;5038067;28;20201;-89
2021/12/23 01:50:27;;;;;;;35.53;17.77;;;-5.70;99.90;;;;;;5038153;28;20177;-89
2021/12/23 01:52:59;;;;;;;36.73;18.80;;;-5.70;99.90;;;;;;5038097;28;20232;-89
2021/12/23 01:55:27;;;;;;;35.77;18.47;;;-5.70;99.90;;;;;;5054175;28;20199;-88
2021/12/23 01:57:54;;;;;;;39.43;18.50;;;-5.70;99.90;;;;;;5038022;28;20193;-89
2021/12/23 02:00:23;;;;;;;35.37;18.53;;;-5.70;99.90;;;;;;5038218;28;20178;-89
2021/12/23 02:02:51;;;;;;;38.83;19.03;;;-5.60;99.90;;;;;;5038271;28;20248;-89
2021/12/23 02:05:17;;;;;;;41.70;19.13;;;-5.60;99.90;;;;;;5037975;28;20185;-88
2021/12/23 02:07:43;;;;;;;39.37;19.47;;;-5.70;99.90;;;;;;5054477;28;20173;-89
2021/12/23 02:10:10;;;;;;;42.40;19.40;;;-5.70;99.90;;;;;;5053801;28;20239;-88
2021/12/23 02:12:36;;;;;;;36.23;18.57;;;-5.70;99.90;;;;;;5041282;28;20207;-89
2021/12/23 02:15:03;;;;;;;40.17;19.17;;;-5.70;99.90;;;;;;5040877;28;20625;-88
2021/12/23 02:17:34;;;;;;;67.03;34.23;;;-5.70;99.90;;;;;;5041490;28;20181;-88
2021/12/23 02:20:00;;;;;;;37.43;19.20;;;-5.80;99.90;;;;;;5041691;28;20174;-88
2021/12/23 02:22:26;;;;;;;38.13;18.90;;;-5.80;99.90;;;;;;5058245;28;20235;-89
2021/12/23 02:24:52;;;;;;;36.47;18.73;;;-5.80;99.90;;;;;;5074521;28;20180;-89
2021/12/23 02:27:18;;;;;;;40.57;19.23;;;-5.80;99.90;;;;;;5057126;28;20177;-88
2021/12/23 02:29:44;;;;;;;37.60;18.97;;;-5.80;99.90;;;;;;5057536;28;20208;-89
2021/12/23 02:32:09;;;;;;;40.50;19.15;;;-5.90;99.90;;;;;;5057799;28;20191;-88
2021/12/23 02:34:35;;;;;;;38.13;19.13;;;-5.90;99.90;;;;;;5057604;28;20200;-89
2021/12/23 02:37:01;;;;;;;37.80;17.70;;;-5.90;99.90;;;;;;5057624;28;20583;-89
2021/12/23 02:39:29;;;;;;;40.37;19.90;;;-5.80;99.90;;;;;;5057471;28;20201;-89
2021/12/23 02:41:55;;;;;;;38.90;18.87;;;-5.80;99.90;;;;;;5052731;28;20177;-89
2021/12/23 02:44:22;;;;;;;40.17;18.87;;;-5.80;99.90;;;;;;5075398;28;20173;-89
2021/12/23 02:46:48;;;;;;;37.20;19.67;;;-5.70;99.90;;;;;;5040722;28;20185;-89
2021/12/23 02:49:14;;;;;;;43.23;20.03;;;-5.70;99.90;;;;;;5041127;28;20197;-89
2021/12/23 02:51:40;;;;;;;46.53;20.33;;;-5.70;99.90;;;;;;5040359;28;20196;-88
2021/12/23 02:54:06;;;;;;;45.43;21.03;;;-5.70;99.90;;;;;;5040794;28;20201;-89
2021/12/23 02:56:33;;;;;;;41.70;20.27;;;-5.60;99.90;;;;;;5040691;28;20173;-89
2021/12/23 02:58:59;;;;;;;44.27;20.37;;;-5.60;99.90;;;;;;5036635;28;20202;-89
2021/12/23 03:01:25;;;;;;;39.90;19.93;;;-5.50;99.90;;;;;;5036949;28;20187;-88
2021/12/23 03:03:51;;;;;;;40.33;20.87;;;-5.50;99.90;;;;;;5019837;28;20265;-88
2021/12/23 03:06:19;;;;;;;41.43;20.40;;;-5.50;99.90;;;;;;5037239;28;20185;-89
2021/12/23 03:09:02;;;;;;;44.53;21.07;;;-5.40;99.90;;;;;;5037072;28;20202;-89
2021/12/23 03:11:29;;;;;;;40.80;20.53;;;-5.40;99.90;;;;;;5020635;28;20649;-89
2021/12/23 03:13:56;;;;;;;44.20;20.83;;;-5.40;99.90;;;;;;5027872;28;20285;-88
2021/12/23 03:16:29;;;;;;;43.13;20.10;;;-5.30;99.90;;;;;;5040523;28;20180;-89
2021/12/23 03:18:55;;;;;;;37.67;19.40;;;-5.30;99.90;;;;;;5040641;28;20198;-89
2021/12/23 03:21:22;;;;;;;42.47;19.30;;;-5.30;99.90;;;;;;5040716;28;20185;-89
2021/12/23 03:23:48;;;;;;;36.20;18.23;;;-5.30;99.90;;;;;;5055966;28;20226;-89
2021/12/23 03:26:14;;;;;;;37.27;18.57;;;-5.40;99.90;;;;;;5040121;28;20185;-89
2021/12/23 03:28:40;;;;;;;37.80;19.30;;;-5.30;99.90;;;;;;5040285;28;20656;-89
2021/12/23 03:31:06;;;;;;;39.73;18.73;;;-5.40;99.90;;;;;;5040388;28;20184;-89
2021/12/23 03:33:32;;;;;;;35.67;18.40;;;-5.30;99.90;;;;;;5039951;28;20236;-89
2021/12/23 03:36:00;;;;;;;37.90;19.20;;;-5.40;99.90;;;;;;5039868;28;20577;-89
2021/12/23 03:38:26;;;;;;;37.77;18.03;;;-5.40;99.90;;;;;;5040188;28;20219;-89
2021/12/23 03:40:53;;;;;;;35.57;17.67;;;-5.30;99.90;;;;;;5040298;28;20173;-89
2021/12/23 03:43:19;;;;;;;35.23;17.83;;;-5.40;99.90;;;;;;5038583;28;20201;-89
2021/12/23 03:45:46;;;;;;;40.10;19.63;;;-5.40;99.90;;;;;;5036586;28;20251;-89
2021/12/23 03:48:14;;;;;;;39.83;18.97;;;-5.40;99.90;;;;;;5036407;28;20194;-88
2021/12/23 03:50:41;;;;;;;37.40;18.10;;;-5.40;99.90;;;;;;5036834;28;20232;-89
2021/12/23 03:53:08;;;;;;;37.40;18.90;;;-5.30;99.90;;;;;;5019882;28;20206;-89
2021/12/23 03:59:33;;;;;;;33.97;16.97;;;-5.40;99.90;;;;;;5054049;28;20197;-88
2021/12/23 04:02:00;;;;;;;36.10;18.63;;;-5.50;99.90;;;;;;5020243;28;20170;-89
2021/12/23 04:04:26;;;;;;;32.57;17.03;;;-5.50;99.90;;;;;;5036034;28;20181;-89
2021/12/23 04:06:52;;;;;;;37.37;18.83;;;-5.50;99.90;;;;;;5035939;28;20204;-89
2021/12/23 04:09:18;;;;;;;41.43;19.10;;;-5.60;99.90;;;;;;5019620;28;20214;-89
2021/12/23 04:11:44;;;;;;;41.50;19.17;;;-5.50;99.90;;;;;;5035971;28;20205;-89
2021/12/23 04:14:10;;;;;;;41.97;19.77;;;-5.50;99.90;;;;;;5040857;28;20237;-89
2021/12/23 04:16:36;;;;;;;37.90;19.90;;;-5.50;99.90;;;;;;5019566;28;20174;-89
2021/12/23 04:19:07;;;;;;;35.27;17.47;;;-5.50;99.90;;;;;;5019483;28;20208;-89
2021/12/23 04:21:33;;;;;;;31.77;17.33;;;-5.50;99.90;;;;;;5019290;28;20181;-89
2021/12/23 04:23:59;;;;;;;38.53;18.53;;;-5.60;99.90;;;;;;5019460;28;20182;-89
2021/12/23 04:26:25;;;;;;;33.00;17.17;;;-5.60;99.90;;;;;;5019434;28;20317;-89
2021/12/23 04:28:52;;;;;;;38.80;18.47;;;-5.60;99.90;;;;;;5019283;28;20300;-88
2021/12/23 04:31:22;;;;;;;38.33;18.57;;;-5.60;99.90;;;;;;5020095;28;20178;-89
2021/12/23 04:33:50;;;;;;;36.00;18.20;;;-5.60;99.90;;;;;;5018802;28;20221;-88
2021/12/23 04:36:17;;;;;;;38.23;19.07;;;-5.60;99.90;;;;;;5019483;28;20174;-89
2021/12/23 04:38:45;;;;;;;42.33;18.83;;;-5.50;99.90;;;;;;5018771;28;20209;-89
2021/12/23 04:41:12;;;;;;;45.70;20.77;;;-5.60;99.90;;;;;;5019470;28;20177;-89
2021/12/23 04:43:38;;;;;;;49.80;24.07;;;-5.60;99.90;;;;;;5018571;28;20182;-89
2021/12/23 04:46:04;;;;;;;53.83;26.90;;;-5.50;99.90;;;;;;5018867;28;20182;-89
2021/12/23 04:56:05;;;;;;;39.77;18.00;;;-5.30;99.90;;;;;;5053249;28;20233;-89
2021/12/23 04:58:31;;;;;;;40.57;19.97;;;-5.30;99.90;;;;;;5018777;28;20343;-89
2021/12/23 05:01:17;;;;;;;37.00;18.53;;;-5.30;99.90;;;;;;5035249;28;20216;-88
2021/12/23 05:03:43;;;;;;;37.23;17.90;;;-5.30;99.90;;;;;;5018789;28;20174;-89
2021/12/23 05:06:09;;;;;;;36.10;18.10;;;-5.30;99.90;;;;;;5018618;28;20181;-88
2021/12/23 05:08:35;;;;;;;42.57;19.57;;;-5.30;99.90;;;;;;5018803;28;20284;-89
2021/12/23 05:11:01;;;;;;;44.90;21.10;;;-5.30;99.90;;;;;;5019416;28;20184;-88
2021/12/23 05:13:26;;;;;;;40.10;19.33;;;-5.40;99.90;;;;;;5021600;28;20568;-89
2021/12/23 05:15:52;;;;;;;40.53;20.37;;;-5.40;99.90;;;;;;5038734;28;20174;-89
2021/12/23 05:18:18;;;;;;;42.53;19.43;;;-5.40;99.90;;;;;;5038786;28;20548;-88
2021/12/23 05:20:44;;;;;;;40.33;20.13;;;-5.40;99.90;;;;;;5038553;28;20184;-89
2021/12/23 05:23:10;;;;;;;39.37;18.83;;;-5.40;99.90;;;;;;5038792;28;20181;-88
2021/12/23 05:25:37;;;;;;;39.97;19.63;;;-5.40;99.90;;;;;;5037839;28;20641;-89
2021/12/23 05:28:03;;;;;;;38.87;19.13;;;-5.40;99.90;;;;;;5038070;28;20197;-89
2021/12/23 05:30:29;;;;;;;41.33;18.33;;;-5.40;99.90;;;;;;5038360;28;20181;-89
2021/12/23 05:32:55;;;;;;;38.93;18.30;;;-5.40;99.90;;;;;;5038425;28;20201;-89
2021/12/23 05:35:22;;;;;;;38.90;18.67;;;-5.40;99.90;;;;;;5037788;28;20198;-88
2021/12/23 05:37:48;;;;;;;42.57;19.07;;;-5.40;99.90;;;;;;5038010;28;20177;-88
2021/12/23 05:40:17;;;;;;;38.37;18.73;;;-5.50;99.90;;;;;;5038059;28;20177;-88
2021/12/23 05:42:44;;;;;;;36.20;18.60;;;-5.50;99.90;;;;;;5038227;28;20180;-89
2021/12/23 05:45:10;;;;;;;33.03;17.87;;;-5.50;99.90;;;;;;5021721;28;20174;-89
2021/12/23 05:47:36;;;;;;;36.77;19.23;;;-5.60;99.90;;;;;;5038088;28;20192;-88
2021/12/23 05:50:03;;;;;;;40.13;19.43;;;-5.60;99.90;;;;;;5038430;28;20182;-88
2021/12/23 05:52:29;;;;;;;39.30;19.37;;;-5.70;99.90;;;;;;5038505;28;20182;-88
2021/12/23 05:54:56;;;;;;;40.63;20.17;;;-5.70;99.90;;;;;;5038259;28;20184;-89
2021/12/23 05:57:22;;;;;;;39.97;20.00;;;-5.80;99.90;;;;;;5021536;28;20182;-88
2021/12/23 05:59:47;;;;;;;42.67;20.40;;;-5.80;99.90;;;;;;5022085;28;20201;-88
2021/12/23 06:02:33;;;;;;;41.33;19.37;;;-5.70;99.90;;;;;;5038269;28;20265;-89
2021/12/23 06:04:59;;;;;;;41.33;19.93;;;-5.70;99.90;;;;;;5036785;28;20192;-89
2021/12/23 06:07:25;;;;;;;39.33;20.00;;;-5.70;99.90;;;;;;5036703;28;20177;-88
2021/12/23 06:09:51;;;;;;;43.60;21.23;;;-5.60;99.90;;;;;;5020081;28;20205;-89
2021/12/23 06:12:17;;;;;;;46.23;21.30;;;-5.60;99.90;;;;;;5020072;28;20174;-88
2021/12/23 06:14:43;;;;;;;42.53;20.90;;;-5.60;99.90;;;;;;5046082;28;20280;-88
2021/12/23 06:17:09;;;;;;;42.97;20.30;;;-5.60;99.90;;;;;;5020093;28;20178;-88
2021/12/23 06:19:35;;;;;;;38.50;19.23;;;-5.60;99.90;;;;;;5019767;28;20197;-89
2021/12/23 06:22:00;;;;;;;39.60;19.77;;;-5.60;99.90;;;;;;5019763;28;20180;-89
2021/12/23 06:24:26;;;;;;;41.57;19.87;;;-5.60;99.90;;;;;;5019952;28;20190;-89
2021/12/23 06:26:52;;;;;;;44.27;21.00;;;-5.60;99.90;;;;;;5019933;28;20178;-89
2021/12/23 06:29:18;;;;;;;44.73;20.53;;;-5.60;99.90;;;;;;5020319;28;20296;-89
2021/12/23 06:31:44;;;;;;;41.50;20.13;;;-5.60;99.90;;;;;;5019861;28;20188;-88
2021/12/23 06:34:10;;;;;;;44.67;20.43;;;-5.50;99.90;;;;;;5019558;28;20193;-89
2021/12/23 06:36:36;;;;;;;41.20;21.20;;;-5.50;99.90;;;;;;5019199;28;20205;-89
2021/12/23 06:39:02;;;;;;;46.20;22.37;;;-5.50;99.90;;;;;;5035518;28;20289;-89
2021/12/23 06:41:28;;;;;;;41.97;20.50;;;-5.50;99.90;;;;;;5036323;28;20185;-88
2021/12/23 06:43:54;;;;;;;48.13;21.23;;;-5.50;99.90;;;;;;5020660;28;20205;-89
2021/12/23 06:46:20;;;;;;;48.87;22.00;;;-5.50;99.90;;;;;;5021041;28;20225;-89
2021/12/23 06:48:46;;;;;;;39.53;20.83;;;-5.50;99.90;;;;;;5021218;28;20213;-89
2021/12/23 06:51:11;;;;;;;42.63;20.63;;;-5.50;99.90;;;;;;5021520;28;20193;-89
2021/12/23 06:53:37;;;;;;;41.63;20.93;;;-5.50;99.90;;;;;;5021016;28;20300;-89
2021/12/23 06:56:10;;;;;;;43.03;22.80;;;-5.50;99.90;;;;;;5020688;28;20206;-89
2021/12/23 06:58:38;;;;;;;48.80;24.23;;;-5.50;99.90;;;;;;5019805;28;20204;-89
2021/12/23 07:01:26;;;;;;;41.17;21.70;;;-5.50;99.90;;;;;;5020600;28;20201;-89
2021/12/23 07:04:07;;;;;;;44.30;22.10;;;-5.40;99.90;;;;;;5020495;28;20180;-89
2021/12/23 07:06:35;;;;;;;44.00;22.50;;;-5.40;99.90;;;;;;5020790;28;20221;-89
2021/12/23 07:09:05;;;;;;;43.37;21.23;;;-5.50;99.90;;;;;;5020706;28;20205;-89
2021/12/23 07:11:34;;;;;;;41.97;20.63;;;-5.50;99.90;;;;;;5020629;28;20197;-89
2021/12/23 07:14:00;;;;;;;42.07;21.20;;;-5.50;99.90;;;;;;5020542;28;20201;-89
2021/12/23 07:16:26;;;;;;;42.73;21.77;;;-5.50;99.90;;;;;;5036823;28;20188;-89
2021/12/23 07:18:52;;;;;;;44.40;21.17;;;-5.50;99.90;;;;;;5020299;28;20194;-89
2021/12/23 07:21:18;;;;;;;41.87;21.77;;;-5.50;99.90;;;;;;5020910;28;20203;-88
2021/12/23 07:23:44;;;;;;;46.43;22.57;;;-5.60;99.90;;;;;;5020686;28;20182;-89
2021/12/23 07:26:10;;;;;;;45.53;22.23;;;-5.60;99.90;;;;;;5038860;28;20173;-89
2021/12/23 07:28:36;;;;;;;39.67;21.60;;;-5.60;99.90;;;;;;5057055;28;20200;-89
2021/12/23 07:31:02;;;;;;;42.07;21.63;;;-5.60;99.90;;;;;;5073663;28;20172;-89
2021/12/23 07:33:28;;;;;;;45.40;22.60;;;-5.60;99.90;;;;;;5055711;28;20204;-89
2021/12/23 07:35:54;;;;;;;47.80;23.27;;;-5.50;99.90;;;;;;5055633;28;20222;-89
2021/12/23 07:38:19;;;;;;;39.13;20.37;;;-5.50;99.90;;;;;;5055844;28;20292;-89
2021/12/23 07:40:46;;;;;;;46.53;21.27;;;-5.50;99.90;;;;;;5054963;28;20173;-89
2021/12/23 07:43:31;;;;;;;39.53;21.50;;;-5.50;99.90;;;;;;5036587;28;20248;-89
2021/12/23 07:45:59;;;;;;;45.90;21.80;;;-5.50;99.90;;;;;;5063938;28;20195;-89
2021/12/23 07:48:25;;;;;;;47.90;23.27;;;-5.50;99.90;;;;;;5049476;28;20202;-84
2021/12/23 07:50:51;;;;;;;56.00;26.67;;;-5.40;99.90;;;;;;5056538;28;20188;-89
2021/12/23 07:53:16;;;;;;;56.80;27.23;;;-5.40;99.90;;;;;;5059113;28;20258;-89
2021/12/23 07:55:43;;;;;;;54.40;26.63;;;-5.30;99.90;;;;;;5059873;28;20225;-89
2021/12/23 07:58:10;;;;;;;53.63;28.30;;;-5.30;99.90;;;;;;5059287;28;20249;-89
2021/12/23 08:00:36;;;;;;;55.93;26.83;;;-5.20;99.90;;;;;;5038080;28;20178;-89
2021/12/23 08:03:08;;;;;;;52.53;27.43;;;-5.20;99.90;;;;;;5019969;28;20193;-89
2021/12/23 08:05:35;;;;;;;56.80;28.57;;;-5.20;99.90;;;;;;5052598;28;20177;-89
2021/12/23 08:08:03;;;;;;;53.63;27.30;;;-5.20;99.90;;;;;;5052647;28;20198;-89
2021/12/23 08:10:29;;;;;;;50.43;26.17;;;-5.10;99.90;;;;;;5019102;28;20182;-89
2021/12/23 08:12:55;;;;;;;51.83;26.70;;;-5.10;99.90;;;;;;5019569;28;20288;-89
2021/12/23 08:15:21;;;;;;;47.00;24.13;;;-5.10;99.90;;;;;;5019279;28;20182;-89
2021/12/23 08:17:47;;;;;;;52.83;24.17;;;-5.00;99.90;;;;;;5019751;28;20174;-89
2021/12/23 08:20:15;;;;;;;47.30;23.47;;;-5.10;99.90;;;;;;5040089;28;20179;-89
2021/12/23 08:22:44;;;;;;;48.37;24.23;;;-5.20;99.90;;;;;;5075599;28;20204;-89
2021/12/23 08:25:12;;;;;;;47.47;23.13;;;-5.10;99.90;;;;;;5059437;28;20281;-89
2021/12/23 08:27:39;;;;;;;47.57;22.37;;;-5.00;99.90;;;;;;5075621;28;20196;-89
2021/12/23 08:30:07;;;;;;;45.90;21.83;;;-4.80;99.90;;;;;;5055574;28;20260;-89
2021/12/23 08:32:33;;;;;;;41.97;20.97;;;-4.70;99.90;;;;;;5038721;28;20181;-89
2021/12/23 08:35:00;;;;;;;42.70;21.07;;;-4.60;99.90;;;;;;5055253;28;20177;-89
2021/12/23 08:37:33;;;;;;;40.60;20.00;;;-4.40;99.90;;;;;;5038905;28;20264;-89
2021/12/23 08:40:07;;;;;;;50.20;22.17;;;-4.30;99.90;;;;;;5043420;28;20169;-89
2021/12/23 08:42:33;;;;;;;44.87;21.03;;;-4.20;99.90;;;;;;5042588;28;20242;-90
2021/12/23 08:44:59;;;;;;;45.07;21.43;;;-4.10;99.90;;;;;;5035593;28;20178;-90
2021/12/23 08:47:27;;;;;;;42.90;20.53;;;-4.00;99.90;;;;;;5066573;28;20260;-90
2021/12/23 08:50:25;;;;;;;45.00;20.07;;;-3.90;99.90;;;;;;5040132;28;20181;-89
2021/12/23 08:52:53;;;;;;;41.43;20.47;;;-3.90;99.90;;;;;;5041494;28;20208;-90
2021/12/23 08:55:28;;;;;;;47.37;21.20;;;-3.80;99.90;;;;;;5045219;28;20189;-90
2021/12/23 08:58:04;;;;;;;47.60;21.13;;;-3.80;99.90;;;;;;5073400;28;20211;-90
2021/12/23 09:00:37;;;;;;;44.03;20.50;;;-3.80;99.90;;;;;;5046141;28;20180;-90
2021/12/23 09:03:17;;;;;;;39.10;20.67;;;-3.70;99.90;;;;;;5038366;28;20177;-91
2021/12/23 09:05:50;;;;;;;44.27;20.73;;;-3.70;99.90;;;;;;5055066;28;20180;-90
2021/12/23 09:08:23;;;;;;;43.53;21.53;;;-3.60;99.90;;;;;;5058853;28;20212;-89
2021/12/23 09:10:55;;;;;;;43.23;21.00;;;-3.60;99.90;;;;;;5059815;28;20188;-91
2021/12/23 09:13:23;;;;;;;44.57;21.27;;;-3.50;99.90;;;;;;5075225;28;20204;-90
2021/12/23 09:15:51;;;;;;;47.73;23.63;;;-3.40;99.90;;;;;;5059396;28;20267;-90
2021/12/23 09:18:19;;;;;;;47.53;22.70;;;-3.30;99.90;;;;;;5059501;28;20197;-90
2021/12/23 09:20:46;;;;;;;46.20;21.47;;;-3.20;99.90;;;;;;5059677;28;20177;-90
2021/12/23 09:23:12;;;;;;;49.07;22.97;;;-3.10;99.90;;;;;;5063499;28;20187;-90
2021/12/23 09:25:38;;;;;;;42.93;22.87;;;-3.10;99.90;;;;;;5063412;28;20184;-90
2021/12/23 09:33:25;;;;;;;47.30;22.17;;;-2.90;99.90;;;;;;5079341;28;20231;-89
2021/12/23 09:35:52;;;;;;;48.27;23.37;;;-2.80;99.90;;;;;;5062361;28;20180;-90
2021/12/23 09:38:25;;;;;;;43.10;22.27;;;-2.80;99.90;;;;;;5062502;28;20216;-89
2021/12/23 09:40:52;;;;;;;49.40;25.77;;;-2.70;99.90;;;;;;5079033;28;20165;-90
2021/12/23 09:43:21;;;;;;;54.87;26.90;;;-2.60;99.90;;;;;;5061506;28;20180;-90
2021/12/23 09:45:47;;;;;;;47.00;24.13;;;-2.50;99.90;;;;;;5042531;28;20235;-90
2021/12/23 09:48:15;;;;;;;53.70;24.37;;;-2.50;99.90;;;;;;5041967;28;20197;-90
2021/12/23 09:50:41;;;;;;;45.27;24.27;;;-2.40;99.90;;;;;;5042285;28;20206;-90
2021/12/23 09:53:08;;;;;;;50.93;25.07;;;-2.30;99.90;;;;;;5042420;28;20205;-89
2021/12/23 09:55:36;;;;;;;48.03;23.83;;;-2.20;99.90;;;;;;5042413;28;20274;-90
2021/12/23 09:58:04;;;;;;;50.20;23.13;;;-2.10;99.90;;;;;;5042329;28;20215;-90
2021/12/23 10:01:02;;;;;;;54.53;25.83;;;-2.00;99.90;;;;;;5041863;28;20222;-90
2021/12/23 10:03:30;;;;;;;45.97;22.57;;;-1.80;99.90;;;;;;5042025;28;20165;-90
2021/12/23 10:05:57;;;;;;;45.70;22.73;;;-1.70;99.90;;;;;;5042261;28;20201;-90
2021/12/23 10:08:23;;;;;;;45.17;21.13;;;-1.60;99.90;;;;;;5042117;28;20284;-90
2021/12/23 10:10:57;;;;;;;42.93;19.93;;;-1.50;99.90;;;;;;5042182;28;20177;-90
2021/12/23 10:30:32;;;;;;;45.40;23.13;;;-0.80;99.90;;;;;;5058353;28;20178;-90
2021/12/23 10:38:48;;;;;;;48.30;24.37;;;-0.60;99.90;;;;;;5057728;28;20584;-90
2021/12/23 10:41:24;;;;;;;46.47;23.03;;;-0.50;99.90;;;;;;5041318;28;20175;-90
2021/12/23 10:44:03;;;;;;;45.93;23.53;;;-0.50;99.90;;;;;;5035763;28;20547;-90
2021/12/23 10:46:36;;;;;;;45.70;23.77;;;-0.40;99.90;;;;;;5038085;28;20658;-90
2021/12/23 10:51:57;;;;;;;45.93;21.80;;;-0.30;99.90;;;;;;5037983;28;20207;-90
2021/12/23 10:58:08;;;;;;;43.10;22.63;;;-0.20;99.90;;;;;;5037540;28;20180;-90
2021/12/23 11:00:45;;;;;;;42.10;21.57;;;-0.10;99.90;;;;;;5021169;28;20200;-89
2021/12/23 11:03:32;;;;;;;41.50;21.57;;;0.00;99.90;;;;;;5020651;28;20194;-90
2021/12/23 11:06:16;;;;;;;40.00;19.70;;;0.10;99.90;;;;;;5020977;28;20267;-90
2021/12/23 11:27:18;;;;;;;36.27;20.53;;;0.30;99.90;;;;;;4938896;29;20306;-90
2021/12/23 11:29:41;;;;;;;50.37;28.47;;;0.60;99.90;;;;;;5057113;28;20203;-90
2021/12/23 11:38:12;;;;;;;41.63;23.27;;;0.50;99.90;;;;;;5056797;28;20223;-90
2021/12/23 11:40:26;;;;;;;53.53;29.17;;;0.50;99.90;;;;;;5048722;28;20637;-90
2021/12/23 11:45:31;;;;;;;52.70;29.50;;;0.50;99.90;;;;;;5056251;28;20175;-90
2021/12/23 11:48:07;;;;;;;49.17;26.77;;;0.60;99.90;;;;;;5039554;28;20199;-90
2021/12/23 11:50:42;;;;;;;48.40;27.50;;;0.60;99.90;;;;;;5040169;28;20256;-90
2021/12/23 11:53:09;;;;;;;47.47;26.10;;;0.60;99.90;;;;;;5039775;28;20200;-90
2021/12/23 11:55:36;;;;;;;48.63;27.20;;;0.70;99.90;;;;;;5039130;28;20180;-90
2021/12/23 11:58:03;;;;;;;53.43;28.70;;;0.70;99.90;;;;;;5039479;28;20300;-90
2021/12/23 12:00:41;;;;;;;50.33;26.37;;;0.80;99.90;;;;;;5039919;28;20537;-90
2021/12/23 12:03:12;;;;;;;51.57;28.10;;;0.90;99.90;;;;;;5039492;28;20181;-90
2021/12/23 12:05:39;;;;;;;53.80;30.77;;;1.00;99.90;;;;;;5039952;28;20172;-90
2021/12/23 12:08:11;;;;;;;65.90;34.50;;;1.00;99.90;;;;;;5039829;28;20204;-91
2021/12/23 12:10:41;;;;;;;83.67;43.30;;;1.20;99.90;;;;;;5040278;28;20196;-90
2021/12/23 12:13:12;;;;;;;66.53;36.63;;;1.20;99.90;;;;;;5039957;28;20204;-92
2021/12/23 12:15:38;;;;;;;52.87;30.10;;;1.30;99.90;;;;;;5039640;28;20173;-90
2021/12/23 12:18:07;;;;;;;50.20;28.50;;;1.50;99.90;;;;;;5039921;28;20208;-90
2021/12/23 12:20:48;;;;;;;41.57;23.67;;;1.50;99.90;;;;;;5039956;28;20316;-90
2021/12/23 12:23:30;;;;;;;35.77;21.17;;;1.60;99.90;;;;;;5049420;28;20293;-89
2021/12/23 12:26:12;;;;;;;31.47;18.13;;;1.80;99.90;;;;;;5050871;28;20221;-89
2021/12/23 12:28:44;;;;;;;29.10;17.33;;;1.90;99.90;;;;;;5019634;28;20320;-90
2021/12/23 12:31:26;;;;;;;35.73;17.10;;;2.00;99.90;;;;;;5058293;28;20202;-90
2021/12/23 12:34:02;;;;;;;27.83;15.97;;;2.10;99.90;;;;;;5042182;28;20272;-90
2021/12/23 12:36:29;;;;;;;27.73;16.40;;;2.10;99.90;;;;;;5039500;28;20249;-90
2021/12/23 12:39:03;;;;;;;29.70;16.97;;;2.20;99.90;;;;;;5055254;28;20273;-89
2021/12/23 12:41:38;;;;;;;31.10;16.93;;;2.20;99.90;;;;;;5039556;28;20182;-90
2021/12/23 12:44:47;;;;;;;30.80;17.50;;;2.30;99.90;;;;;;5043439;28;20189;-90
2021/12/23 12:47:10;;;;;;;30.77;20.17;;;2.40;99.90;;;;;;5036107;28;20243;-90
2021/12/23 12:49:48;;;;;;;32.70;20.77;;;2.40;99.90;;;;;;5041065;28;20213;-90
2021/12/23 12:52:17;;;;;;;31.53;19.50;;;2.40;99.90;;;;;;5058890;28;20169;-90
2021/12/23 12:55:03;;;;;;;28.47;17.53;;;2.40;99.90;;;;;;5058550;28;20255;-90
2021/12/23 12:57:39;;;;;;;28.57;17.07;;;2.50;99.90;;;;;;5042423;28;20176;-88
2021/12/23 13:00:38;;;;;;;29.50;17.07;;;2.50;99.90;;;;;;5059096;28;20203;-88
2021/12/23 13:03:08;;;;;;;32.80;19.00;;;2.60;99.90;;;;;;5044549;28;20191;-87
2021/12/23 13:05:40;;;;;;;30.27;17.83;;;2.70;99.90;;;;;;5058455;28;20177;-87
2021/12/23 13:08:21;;;;;;;28.70;17.60;;;2.70;99.90;;;;;;5076021;28;20200;-87
2021/12/23 13:11:21;;;;;;;28.03;16.77;;;2.70;99.90;;;;;;5061097;28;20381;-87
2021/12/23 13:14:12;;;;;;;23.67;14.57;;;2.80;99.90;;;;;;5070911;28;20575;-87
2021/12/23 13:16:58;;;;;;;24.57;13.80;;;2.80;99.90;;;;;;5058031;28;20177;-88
2021/12/23 13:19:35;;;;;;;22.37;14.63;;;2.90;99.90;;;;;;5038897;28;20193;-88
2021/12/23 13:22:06;;;;;;;24.50;14.00;;;3.00;99.90;;;;;;5049828;28;20188;-87
2021/12/23 13:24:43;;;;;;;31.03;17.97;;;3.00;99.90;;;;;;5061049;28;20275;-87
2021/12/23 13:27:11;;;;;;;28.70;18.47;;;3.10;99.90;;;;;;5037253;28;20185;-87
2021/12/23 13:29:57;;;;;;;27.13;17.37;;;3.10;99.90;;;;;;5048227;28;20268;-88
2021/12/23 13:32:23;;;;;;;27.07;16.30;;;3.20;99.90;;;;;;5057686;28;20272;-88
2021/12/23 13:35:18;;;;;;;25.53;15.93;;;3.10;99.90;;;;;;5058882;28;20220;-88
2021/12/23 13:37:45;;;;;;;29.10;17.40;;;3.20;99.90;;;;;;5015036;28;20571;-89
2021/12/23 13:40:24;;;;;;;29.00;16.07;;;3.20;99.90;;;;;;5035263;28;20630;-88
2021/12/23 13:42:51;;;;;;;24.40;15.60;;;3.20;99.90;;;;;;5035004;28;20162;-88
2021/12/23 13:45:30;;;;;;;24.77;14.83;;;3.20;99.90;;;;;;5031371;28;20187;-88
2021/12/23 13:47:58;;;;;;;24.67;15.47;;;3.20;99.90;;;;;;5057152;28;20192;-88
2021/12/23 13:50:27;;;;;;;21.50;12.60;;;3.30;99.90;;;;;;5055834;28;20185;-88
2021/12/23 13:53:49;;;;;;;20.77;12.33;;;3.40;99.90;;;;;;5037513;28;20193;-88
2021/12/23 14:07:43;;;;;;;17.13;10.10;;;4.10;99.90;;;;;;5094756;28;20254;-88
2021/12/23 14:10:25;;;;;;;17.83;11.00;;;4.10;99.90;;;;;;5050731;28;20276;-88
2021/12/23 14:13:01;;;;;;;18.40;10.93;;;4.10;99.90;;;;;;5052765;28;20208;-88
2021/12/23 14:15:35;;;;;;;15.53;10.43;;;4.00;99.90;;;;;;5062475;28;20169;-89